Time;durP1;ratioP1;P1;durP2;ratioP2;P2;SDS_P1;SDS_P2;PMS_P1;PMS_P2;Temp;Humidity;BMP_temperature;BMP_pressure;BME280_temperature;BME280_humidity;BME280_pressure;Samples;Min_cycle;Max_cycle;Signal;HPM_P1;HPM_P2
2022/06/20 00:01:43;0.00;0.00;0.62;0.00;0.00;0.62;1.80;1.30;;;27.00;28.40;;;;;;2244927;61;20897;-52
2022/06/20 00:04:29;0.00;0.00;0.62;0.00;0.00;0.62;2.50;1.40;;;27.00;28.50;;;;;;2248013;61;20367;-53
2022/06/20 00:07:14;0.00;0.00;0.62;0.00;0.00;0.62;2.07;1.27;;;27.00;28.50;;;;;;2248362;61;20399;-55
2022/06/20 00:09:59;0.00;0.00;0.62;0.00;0.00;0.62;2.30;1.23;;;27.00;28.50;;;;;;2253258;61;20978;-51
2022/06/20 00:12:46;0.00;0.00;0.62;0.00;0.00;0.62;3.37;1.70;;;27.00;28.50;;;;;;2256454;61;20366;-54
2022/06/20 00:15:35;0.00;0.00;0.62;0.00;0.00;0.62;3.60;1.70;;;27.00;28.50;;;;;;2256280;61;20362;-56
2022/06/20 00:18:21;0.00;0.00;0.62;0.00;0.00;0.62;1.80;1.33;;;26.90;28.50;;;;;;2256314;61;20382;-51
2022/06/20 00:21:08;0.00;0.00;0.62;0.00;0.00;0.62;2.00;1.20;;;26.90;28.50;;;;;;2256432;61;20450;-50
2022/06/20 00:23:53;0.00;0.00;0.62;0.00;0.00;0.62;2.53;1.50;;;26.90;28.60;;;;;;2256354;61;20374;-53
2022/06/20 00:26:38;0.00;0.00;0.62;0.00;0.00;0.62;2.40;1.30;;;26.90;28.60;;;;;;2256586;61;20385;-54
2022/06/20 00:29:28;0.00;0.00;0.62;0.00;0.00;0.62;3.23;1.33;;;26.90;28.60;;;;;;2256410;61;20436;-51
2022/06/20 00:32:14;0.00;0.00;0.62;0.00;0.00;0.62;2.00;1.20;;;26.80;28.50;;;;;;2256422;61;20397;-51
2022/06/20 00:34:59;0.00;0.00;0.62;0.00;0.00;0.62;1.83;1.23;;;26.80;28.50;;;;;;2256246;61;20374;-53
2022/06/20 00:37:44;0.00;0.00;0.62;0.00;0.00;0.62;2.17;1.43;;;26.80;28.60;;;;;;2256357;61;20393;-55
2022/06/20 00:40:34;0.00;0.00;0.62;0.00;0.00;0.62;2.17;1.43;;;26.80;28.60;;;;;;2256451;61;20358;-50
2022/06/20 00:43:26;0.00;0.00;0.62;0.00;0.00;0.62;2.20;1.10;;;26.80;28.60;;;;;;2256278;61;20401;-50
2022/06/20 00:46:30;0.00;0.00;0.62;0.00;0.00;0.62;4.80;1.53;;;26.70;28.60;;;;;;2256048;61;20393;-53
2022/06/20 00:49:21;0.00;0.00;0.62;0.00;0.00;0.62;1.80;1.00;;;26.70;28.60;;;;;;2255384;61;20366;-54
2022/06/20 00:52:15;0.00;0.00;0.62;0.00;0.00;0.62;2.73;1.17;;;26.70;28.60;;;;;;2256834;61;20753;-49
2022/06/20 00:55:04;0.00;0.00;0.62;0.00;0.00;0.62;1.77;1.00;;;26.70;28.70;;;;;;2256665;61;20342;-54
2022/06/20 00:57:56;0.00;0.00;0.62;0.00;0.00;0.62;2.70;1.20;;;26.70;28.70;;;;;;2256918;61;20934;-51
2022/06/20 01:00:41;0.00;0.00;0.62;0.00;0.00;0.62;3.17;1.90;;;26.60;28.70;;;;;;2256845;61;20377;-54
2022/06/20 01:03:33;0.00;0.00;0.62;0.00;0.00;0.62;2.50;1.30;;;26.60;28.70;;;;;;2256589;61;20782;-53
2022/06/20 01:06:24;0.00;0.00;0.62;0.00;0.00;0.62;1.63;1.00;;;26.60;28.70;;;;;;2256500;61;20401;-52
2022/06/20 01:09:12;0.00;0.00;0.62;0.00;0.00;0.62;3.00;1.33;;;26.60;28.70;;;;;;2256555;61;20346;-52
2022/06/20 01:12:02;0.00;0.00;0.62;0.00;0.00;0.62;3.20;1.17;;;26.60;28.70;;;;;;2256214;61;20362;-52
2022/06/20 01:14:47;0.00;0.00;0.62;0.00;0.00;0.62;2.37;1.40;;;26.70;28.80;;;;;;2256531;61;20346;-55
2022/06/20 01:17:37;0.00;0.00;0.62;0.00;0.00;0.62;1.50;1.07;;;26.60;28.80;;;;;;2256388;61;20402;-53
2022/06/20 01:20:26;0.00;0.00;0.62;0.00;0.00;0.62;1.80;1.20;;;26.60;28.80;;;;;;2256683;61;20894;-50
2022/06/20 01:23:24;0.00;0.00;0.62;0.00;0.00;0.62;2.90;1.17;;;26.60;28.80;;;;;;2256121;61;20396;-52
2022/06/20 01:26:24;0.00;0.00;0.62;0.00;0.00;0.62;1.80;1.27;;;26.60;28.80;;;;;;2255995;61;20498;-56
2022/06/20 01:33:31;0.00;0.00;0.62;0.00;0.00;0.62;2.43;1.33;;;26.60;29.00;;;;;;2243095;61;20364;-53
2022/06/20 01:39:26;0.00;0.00;0.62;0.00;0.00;0.62;2.03;1.40;;;26.50;29.00;;;;;;2255984;61;20405;-55
2022/06/20 01:42:19;0.00;0.00;0.62;0.00;0.00;0.62;2.77;1.73;;;26.50;29.00;;;;;;2256831;61;20346;-54
2022/06/20 01:45:57;0.00;0.00;0.62;0.00;0.00;0.62;2.40;1.53;;;26.50;29.10;;;;;;2256527;61;20408;-57
2022/06/20 01:48:20;0.00;0.00;0.62;0.00;0.00;0.62;2.53;1.50;;;26.50;29.10;;;;;;2256650;61;20366;-55
2022/06/20 01:51:16;0.00;0.00;0.62;0.00;0.00;0.62;2.33;1.50;;;26.40;29.00;;;;;;2256211;61;20905;-54
2022/06/20 01:54:03;0.00;0.00;0.62;0.00;0.00;0.62;4.77;1.67;;;26.40;29.60;;;;;;2255965;61;20928;-51
2022/06/20 01:56:50;0.00;0.00;0.62;0.00;0.00;0.62;2.10;1.40;;;26.40;29.10;;;;;;2255999;61;20373;-51
2022/06/20 01:59:40;0.00;0.00;0.62;0.00;0.00;0.62;2.13;1.47;;;26.30;29.00;;;;;;2255833;61;20482;-55
2022/06/20 02:02:27;0.00;0.00;0.62;0.00;0.00;0.62;3.23;1.70;;;26.30;29.00;;;;;;2255859;61;20761;-55
2022/06/20 02:05:23;0.00;0.00;0.62;0.00;0.00;0.62;2.53;1.30;;;26.30;29.10;;;;;;2255781;61;20386;-52
2022/06/20 02:08:13;0.00;0.00;0.62;0.00;0.00;0.62;3.30;1.60;;;26.30;29.10;;;;;;2255897;61;20377;-51
2022/06/20 02:11:05;0.00;0.00;0.62;0.00;0.00;0.62;2.60;1.50;;;26.30;29.20;;;;;;2255964;61;20750;-51
2022/06/20 02:13:54;0.00;0.00;0.62;0.00;0.00;0.62;3.17;1.70;;;26.20;29.20;;;;;;2256009;61;20350;-51
2022/06/20 02:16:44;0.00;0.00;0.62;0.00;0.00;0.62;3.10;1.27;;;26.20;29.20;;;;;;2255726;61;20378;-54
2022/06/20 02:19:33;0.00;0.00;0.62;0.00;0.00;0.62;2.97;1.57;;;26.20;29.20;;;;;;2255780;61;20393;-52
2022/06/20 02:22:21;0.00;0.00;0.62;0.00;0.00;0.62;3.77;1.57;;;26.20;29.20;;;;;;2255746;61;20425;-52
2022/06/20 02:25:13;0.00;0.00;0.62;0.00;0.00;0.62;3.77;1.50;;;26.20;29.30;;;;;;2255600;61;20393;-51
2022/06/20 02:28:05;0.00;0.00;0.62;0.00;0.00;0.62;2.37;1.30;;;26.20;29.30;;;;;;2255895;61;20417;-51
2022/06/20 02:30:50;0.00;0.00;0.62;0.00;0.00;0.62;1.80;1.37;;;26.20;29.30;;;;;;2255823;61;20452;-54
2022/06/20 02:33:35;0.00;0.00;0.62;0.00;0.00;0.62;3.27;1.53;;;26.20;29.30;;;;;;2255861;61;20350;-53
2022/06/20 02:36:20;0.00;0.00;0.62;0.00;0.00;0.62;2.33;1.40;;;26.10;29.30;;;;;;2255819;61;20489;-52
2022/06/20 02:39:06;0.00;0.00;0.62;0.00;0.00;0.62;1.80;1.07;;;26.10;29.30;;;;;;2255995;61;20408;-54
2022/06/20 02:42:02;0.00;0.00;0.62;0.00;0.00;0.62;3.70;1.47;;;26.10;29.40;;;;;;2256089;61;20338;-51
2022/06/20 02:44:49;0.00;0.00;0.62;0.00;0.00;0.62;2.73;1.50;;;26.00;29.30;;;;;;2255751;61;20772;-53
2022/06/20 02:47:37;0.00;0.00;0.62;0.00;0.00;0.62;2.70;1.50;;;26.00;29.30;;;;;;2255581;61;20401;-54
2022/06/20 02:50:26;0.00;0.00;0.62;0.00;0.00;0.62;2.87;1.30;;;26.00;29.40;;;;;;2255935;61;20377;-55
2022/06/20 02:53:18;0.00;0.00;0.62;0.00;0.00;0.62;1.70;1.10;;;26.00;29.40;;;;;;2255234;61;20800;-52
2022/06/20 02:56:05;0.00;0.00;0.62;0.00;0.00;0.62;2.40;1.50;;;26.00;29.40;;;;;;2256004;61;20481;-56
2022/06/20 02:58:56;0.00;0.00;0.62;0.00;0.00;0.62;1.90;1.10;;;25.90;29.40;;;;;;2255807;61;20365;-54
2022/06/20 03:01:45;0.00;0.00;0.62;0.00;0.00;0.62;2.40;1.53;;;25.90;29.40;;;;;;2255847;61;20373;-55
2022/06/20 03:04:36;0.00;0.00;0.62;0.00;0.00;0.62;3.00;1.30;;;25.90;29.40;;;;;;2255740;61;20347;-48
2022/06/20 03:07:27;0.00;0.00;0.62;0.00;0.00;0.62;3.10;1.30;;;25.90;29.50;;;;;;2255572;61;20440;-56
2022/06/20 03:10:25;0.00;0.00;0.62;0.00;0.00;0.62;1.83;1.27;;;25.90;29.50;;;;;;2252915;61;20410;-53
2022/06/20 03:13:12;0.00;0.00;0.62;0.00;0.00;0.62;2.40;1.37;;;25.80;29.40;;;;;;2251613;61;20891;-54
2022/06/20 03:16:00;0.00;0.00;0.62;0.00;0.00;0.62;4.60;1.73;;;25.80;29.50;;;;;;2251486;61;20338;-53
2022/06/20 03:18:49;0.00;0.00;0.62;0.00;0.00;0.62;2.97;2.33;;;25.80;29.60;;;;;;2251818;61;20354;-51
2022/06/20 03:21:37;0.00;0.00;0.62;0.00;0.00;0.62;2.03;1.37;;;25.80;29.70;;;;;;2248572;61;20352;-52
2022/06/20 03:24:24;0.00;0.00;0.62;0.00;0.00;0.62;4.47;1.57;;;25.80;29.70;;;;;;2251783;61;20355;-52
2022/06/20 03:27:13;0.00;0.00;0.62;0.00;0.00;0.62;2.83;1.80;;;25.70;29.70;;;;;;2251424;61;20475;-53
2022/06/20 03:30:04;0.00;0.00;0.62;0.00;0.00;0.62;5.20;1.70;;;25.70;29.80;;;;;;2251979;61;20434;-53
2022/06/20 03:32:51;0.00;0.00;0.62;0.00;0.00;0.62;3.30;1.53;;;25.70;30.40;;;;;;2248713;61;20413;-53
2022/06/20 03:35:38;0.00;0.00;0.62;0.00;0.00;0.62;3.93;1.63;;;25.60;30.00;;;;;;2251807;61;20390;-52
2022/06/20 03:38:25;0.00;0.00;0.62;0.00;0.00;0.62;3.67;1.73;;;25.60;30.00;;;;;;2251794;61;20359;-55
2022/06/20 03:41:12;0.00;0.00;0.62;0.00;0.00;0.62;3.83;1.90;;;25.50;30.20;;;;;;2251917;61;20359;-55
2022/06/20 03:44:04;0.00;0.00;0.62;0.00;0.00;0.62;4.50;2.10;;;25.40;30.30;;;;;;2249177;61;20347;-52
2022/06/20 03:46:56;0.00;0.00;0.62;0.00;0.00;0.62;4.10;1.90;;;25.40;30.30;;;;;;2249089;61;20927;-51
2022/06/20 03:49:49;0.00;0.00;0.62;0.00;0.00;0.62;4.80;1.60;;;25.40;30.30;;;;;;2252278;61;20378;-52
2022/06/20 03:52:40;0.00;0.00;0.62;0.00;0.00;0.62;2.43;1.70;;;25.30;30.20;;;;;;2252510;61;20906;-55
2022/06/20 03:55:31;0.00;0.00;0.62;0.00;0.00;0.62;4.10;1.80;;;25.30;30.60;;;;;;2252321;61;20382;-51
2022/06/20 03:58:25;0.00;0.00;0.62;0.00;0.00;0.62;6.93;2.27;;;25.20;30.70;;;;;;2252295;61;20387;-52
2022/06/20 04:01:16;0.00;0.00;0.62;0.00;0.00;0.62;4.43;2.10;;;25.10;30.90;;;;;;2252231;61;20362;-51
2022/06/20 04:04:06;0.00;0.00;0.62;0.00;0.00;0.62;3.60;2.00;;;25.00;31.00;;;;;;2252010;61;20363;-54
2022/06/20 04:06:57;0.00;0.00;0.62;0.00;0.00;0.62;4.70;2.20;;;25.00;31.10;;;;;;2251701;61;20386;-54
2022/06/20 04:12:58;0.00;0.00;0.62;0.00;0.00;0.62;5.73;2.40;;;24.80;31.40;;;;;;2251715;61;20434;-53
2022/06/20 04:15:48;0.00;0.00;0.62;0.00;0.00;0.62;3.57;2.10;;;24.70;31.50;;;;;;2251835;61;20401;-52
2022/06/20 04:18:39;0.00;0.00;0.62;0.00;0.00;0.62;4.27;1.77;;;24.70;31.60;;;;;;2252039;61;20410;-52
2022/06/20 04:21:32;0.00;0.00;0.62;0.00;0.00;0.62;3.50;1.50;;;24.60;31.60;;;;;;2251799;61;20362;-55
2022/06/20 04:24:27;0.00;0.00;0.62;0.00;0.00;0.62;2.70;1.27;;;24.60;31.70;;;;;;2251440;61;20363;-53
2022/06/20 04:27:24;0.00;0.00;0.62;0.00;0.00;0.62;3.57;1.40;;;24.60;31.70;;;;;;2251603;61;20434;-54
2022/06/20 04:30:17;0.00;0.00;0.62;0.00;0.00;0.62;3.07;1.50;;;24.60;31.80;;;;;;2251833;61;20398;-55
2022/06/20 04:33:11;0.00;0.00;0.62;0.00;0.00;0.62;2.97;1.60;;;24.60;31.80;;;;;;2252357;61;20417;-52
2022/06/20 04:36:15;0.00;0.00;0.62;0.00;0.00;0.62;2.80;1.33;;;24.60;31.70;;;;;;2251666;61;20403;-55
2022/06/20 04:39:05;0.00;0.00;0.62;0.00;0.00;0.62;2.43;1.40;;;24.60;31.70;;;;;;2251945;61;20362;-54
2022/06/20 04:41:57;0.00;0.00;0.62;0.00;0.00;0.62;1.90;1.20;;;24.60;31.60;;;;;;2252051;61;20849;-51
2022/06/20 04:44:50;0.00;0.00;0.62;0.00;0.00;0.62;1.90;1.40;;;24.60;31.60;;;;;;2251474;61;20363;-51
2022/06/20 04:47:42;0.00;0.00;0.62;0.00;0.00;0.62;2.87;1.57;;;24.60;31.50;;;;;;2251960;61;20873;-51
2022/06/20 04:50:32;0.00;0.00;0.62;0.00;0.00;0.62;4.20;1.47;;;24.70;31.50;;;;;;2251650;61;20945;-51
2022/06/20 04:53:20;0.00;0.00;0.62;0.00;0.00;0.62;3.30;1.77;;;24.70;31.40;;;;;;2251365;61;21094;-52
2022/06/20 04:56:10;0.00;0.00;0.62;0.00;0.00;0.62;2.90;1.87;;;24.70;31.20;;;;;;2252013;61;20402;-52
2022/06/20 04:59:01;0.00;0.00;0.62;0.00;0.00;0.62;2.33;1.50;;;24.70;31.10;;;;;;2251507;61;20890;-52
2022/06/20 05:01:46;0.00;0.00;0.62;0.00;0.00;0.62;3.23;1.50;;;24.70;31.10;;;;;;2252132;61;20363;-55
2022/06/20 05:04:36;0.00;0.00;0.62;0.00;0.00;0.62;3.80;1.73;;;24.70;30.90;;;;;;2251500;61;20363;-57
2022/06/20 05:07:27;0.00;0.00;0.62;0.00;0.00;0.62;3.20;1.60;;;24.70;30.90;;;;;;2251479;61;20387;-56
2022/06/20 05:10:18;0.00;0.00;0.62;0.00;0.00;0.62;2.60;1.60;;;24.70;30.80;;;;;;2251900;61;20398;-54
2022/06/20 05:13:12;0.00;0.00;0.62;0.00;0.00;0.62;2.93;1.60;;;24.70;30.80;;;;;;2251439;61;20391;-56
2022/06/20 05:15:59;0.00;0.00;0.62;0.00;0.00;0.62;2.27;1.57;;;24.70;30.70;;;;;;2251499;61;20371;-52
2022/06/20 05:18:48;0.00;0.00;0.62;0.00;0.00;0.62;3.33;1.63;;;24.70;30.80;;;;;;2252012;61;20399;-57
2022/06/20 05:21:40;0.00;0.00;0.62;0.00;0.00;0.62;2.90;1.60;;;24.70;30.70;;;;;;2251659;61;20358;-54
2022/06/20 05:24:32;0.00;0.00;0.62;0.00;0.00;0.62;4.07;1.80;;;24.70;30.70;;;;;;2251808;61;20363;-53
2022/06/20 05:27:22;0.00;0.00;0.62;0.00;0.00;0.62;6.20;2.33;;;24.70;30.70;;;;;;2251253;61;21002;-51
2022/06/20 05:30:13;0.00;0.00;0.62;0.00;0.00;0.62;2.90;1.60;;;24.70;30.60;;;;;;2251709;61;20402;-57
2022/06/20 05:33:08;0.00;0.00;0.62;0.00;0.00;0.62;2.93;1.60;;;24.60;30.50;;;;;;2251843;61;20407;-52
2022/06/20 05:35:57;0.00;0.00;0.62;0.00;0.00;0.62;2.50;1.40;;;24.60;30.40;;;;;;2248339;61;20367;-55
2022/06/20 05:38:49;0.00;0.00;0.62;0.00;0.00;0.62;3.50;1.60;;;24.60;30.40;;;;;;2251878;61;20366;-52
2022/06/20 05:41:34;0.00;0.00;0.62;0.00;0.00;0.62;3.50;1.30;;;24.60;30.50;;;;;;2251471;61;20358;-53
2022/06/20 05:44:19;0.00;0.00;0.62;0.00;0.00;0.62;4.07;2.37;;;24.60;30.50;;;;;;2251314;61;20386;-52
2022/06/20 05:47:11;0.00;0.00;0.62;0.00;0.00;0.62;3.07;1.57;;;24.50;30.40;;;;;;2251704;61;20640;-54
2022/06/20 05:50:04;0.00;0.00;0.62;0.00;0.00;0.62;2.80;1.57;;;24.50;30.40;;;;;;2251319;61;20906;-52
2022/06/20 05:52:51;0.00;0.00;0.62;0.00;0.00;0.62;2.60;1.33;;;24.50;30.40;;;;;;2251665;61;20393;-52
2022/06/20 05:55:42;0.00;0.00;0.62;0.00;0.00;0.62;5.97;2.57;;;24.50;30.40;;;;;;2251670;61;20371;-52
2022/06/20 05:58:32;0.00;0.00;0.62;0.00;0.00;0.62;3.83;2.30;;;24.50;30.40;;;;;;2251648;61;20355;-56
2022/06/20 06:01:22;0.00;0.00;0.62;0.00;0.00;0.62;4.23;1.77;;;24.50;30.40;;;;;;2251706;61;20398;-52
2022/06/20 06:04:17;0.00;0.00;0.62;0.00;0.00;0.62;3.47;2.20;;;24.50;30.40;;;;;;2251813;61;20366;-53
2022/06/20 06:07:13;0.00;0.00;0.62;0.00;0.00;0.62;3.67;2.00;;;24.50;30.40;;;;;;2271410;61;20447;-52
2022/06/20 06:10:01;0.00;0.00;0.62;0.00;0.00;0.62;6.93;1.87;;;24.50;30.60;;;;;;2248319;61;20376;-54
2022/06/20 06:12:51;0.00;0.00;0.62;0.00;0.00;0.62;3.40;1.97;;;24.50;30.60;;;;;;2247886;61;20360;-54
2022/06/20 06:16:46;0.00;0.00;0.62;0.00;0.00;0.62;2.87;1.50;;;24.50;30.70;;;;;;2247713;61;20403;-54
2022/06/20 06:18:57;0.00;0.00;0.62;0.00;0.00;0.62;5.43;2.33;;;24.40;30.60;;;;;;2247416;61;20371;-55
2022/06/20 06:21:43;0.00;0.00;0.62;0.00;0.00;0.62;3.60;1.90;;;24.40;30.80;;;;;;2247594;61;20467;-52
2022/06/20 06:24:32;0.00;0.00;0.62;0.00;0.00;0.62;4.60;2.53;;;24.40;30.90;;;;;;2247638;61;20392;-56
2022/06/20 06:27:23;0.00;0.00;0.62;0.00;0.00;0.62;4.37;2.50;;;24.40;31.00;;;;;;2247708;61;20951;-51
2022/06/20 06:30:17;0.00;0.00;0.62;0.00;0.00;0.62;5.53;2.30;;;24.40;31.20;;;;;;2246737;61;21117;-51
2022/06/20 06:33:11;0.00;0.00;0.62;0.00;0.00;0.62;4.00;1.70;;;24.30;31.20;;;;;;2247416;61;20391;-50
2022/06/20 06:36:03;0.00;0.00;0.62;0.00;0.00;0.62;4.97;2.03;;;24.20;31.30;;;;;;2247073;61;20411;-50
2022/06/20 06:38:55;0.00;0.00;0.62;0.00;0.00;0.62;4.33;1.60;;;24.10;31.30;;;;;;2247583;61;20364;-50
2022/06/20 06:41:45;0.00;0.00;0.62;0.00;0.00;0.62;3.80;1.57;;;24.10;31.70;;;;;;2247034;61;20776;-48
2022/06/20 06:44:36;0.00;0.00;0.62;0.00;0.00;0.62;3.90;2.40;;;24.00;31.40;;;;;;2246802;61;21110;-54
2022/06/20 06:47:29;0.00;0.00;0.62;0.00;0.00;0.62;3.00;1.60;;;24.00;31.60;;;;;;2247426;61;20394;-54
2022/06/20 06:50:34;0.00;0.00;0.62;0.00;0.00;0.62;3.10;1.90;;;24.00;31.70;;;;;;2248912;61;20903;-57
2022/06/20 06:53:26;0.00;0.00;0.62;0.00;0.00;0.62;5.70;2.00;;;23.90;31.70;;;;;;2480987;53;20455;-56
2022/06/20 06:56:18;0.00;0.00;0.62;0.00;0.00;0.62;2.33;1.50;;;23.90;31.80;;;;;;2247230;61;20393;-55
2022/06/20 06:59:12;0.00;0.00;0.62;0.00;0.00;0.62;4.43;1.50;;;23.90;31.90;;;;;;2247190;61;20979;-56
2022/06/20 07:02:02;0.00;0.00;0.62;0.00;0.00;0.62;3.87;1.70;;;23.90;32.00;;;;;;2247716;61;20842;-52
2022/06/20 07:04:56;0.00;0.00;0.62;0.00;0.00;0.62;3.73;1.73;;;24.00;32.00;;;;;;2246902;61;20363;-50
2022/06/20 07:07:46;0.00;0.00;0.62;0.00;0.00;0.62;3.27;1.33;;;24.00;32.10;;;;;;2247500;61;20449;-55
2022/06/20 07:10:37;0.00;0.00;0.62;0.00;0.00;0.62;2.80;1.40;;;24.00;32.10;;;;;;2246704;61;20824;-55
2022/06/20 07:13:36;0.00;0.00;0.62;0.00;0.00;0.62;3.50;1.80;;;24.00;32.10;;;;;;2246223;61;20363;-56
2022/06/20 07:16:28;0.00;0.00;0.62;0.00;0.00;0.62;6.17;1.67;;;24.00;32.00;;;;;;2279766;58;20979;-53
2022/06/20 07:19:14;0.00;0.00;0.62;0.00;0.00;0.62;2.83;1.40;;;24.00;32.10;;;;;;2248074;61;20431;-49
2022/06/20 07:21:59;0.00;0.00;0.62;0.00;0.00;0.62;2.30;1.57;;;24.00;32.10;;;;;;2249906;61;20418;-51
2022/06/20 07:24:46;0.00;0.00;0.62;0.00;0.00;0.62;6.83;1.83;;;24.10;32.10;;;;;;2251755;61;20386;-58
2022/06/20 07:27:36;0.00;0.00;0.62;0.00;0.00;0.62;2.23;1.10;;;24.10;32.10;;;;;;2248576;61;20478;-54
2022/06/20 07:30:26;0.00;0.00;0.62;0.00;0.00;0.62;2.97;1.30;;;24.20;32.10;;;;;;2252324;61;20363;-51
2022/06/20 07:33:22;0.00;0.00;0.62;0.00;0.00;0.62;2.53;1.37;;;24.20;32.10;;;;;;2251017;61;20386;-54
2022/06/20 07:36:10;0.00;0.00;0.62;0.00;0.00;0.62;2.97;1.63;;;24.20;32.10;;;;;;2251243;61;20374;-50
2022/06/20 07:39:03;0.00;0.00;0.62;0.00;0.00;0.62;2.57;1.30;;;24.30;32.20;;;;;;2251102;61;20362;-50
2022/06/20 07:41:55;0.00;0.00;0.62;0.00;0.00;0.62;3.70;1.57;;;24.30;32.10;;;;;;2251232;61;20347;-49
2022/06/20 07:44:46;0.00;0.00;0.62;0.00;0.00;0.62;2.90;1.80;;;24.30;32.30;;;;;;2248800;61;20402;-51
2022/06/20 07:47:37;0.00;0.00;0.62;0.00;0.00;0.62;5.10;1.70;;;24.40;32.30;;;;;;2251223;61;20511;-50
2022/06/20 07:50:30;0.00;0.00;0.62;0.00;0.00;0.62;3.07;1.33;;;24.40;32.20;;;;;;2251621;61;20366;-53
2022/06/20 07:53:21;0.00;0.00;0.62;0.00;0.00;0.62;2.00;1.30;;;24.40;32.10;;;;;;2251850;61;20459;-54
2022/06/20 07:56:24;0.00;0.00;0.62;0.00;0.00;0.62;6.33;1.30;;;24.50;32.30;;;;;;2251588;61;20446;-57
2022/06/20 07:59:15;0.00;0.00;0.62;0.00;0.00;0.62;4.13;1.30;;;24.50;32.30;;;;;;2251908;61;20362;-57
2022/06/20 08:02:06;0.00;0.00;0.62;0.00;0.00;0.62;2.80;1.50;;;24.50;32.30;;;;;;2250543;61;20363;-57
2022/06/20 08:04:58;0.00;0.00;0.62;0.00;0.00;0.62;5.23;1.37;;;24.60;32.30;;;;;;2247726;61;20360;-56
2022/06/20 08:07:51;0.00;0.00;0.62;0.00;0.00;0.62;3.83;1.63;;;24.60;32.30;;;;;;2248145;61;20403;-56
2022/06/20 08:10:44;0.00;0.00;0.62;0.00;0.00;0.62;3.30;1.40;;;24.70;32.30;;;;;;2247864;61;20456;-57
2022/06/20 08:13:38;0.00;0.00;0.62;0.00;0.00;0.62;4.03;1.80;;;24.70;32.90;;;;;;2247692;61;20360;-54
2022/06/20 08:16:27;0.00;0.00;0.62;0.00;0.00;0.62;5.03;1.60;;;24.70;32.10;;;;;;2247913;61;20789;-56
2022/06/20 08:19:13;0.00;0.00;0.62;0.00;0.00;0.62;2.90;1.40;;;24.70;32.10;;;;;;2247851;61;20431;-54
2022/06/20 08:22:04;0.00;0.00;0.62;0.00;0.00;0.62;5.50;2.03;;;24.80;32.10;;;;;;2248207;61;20407;-54
2022/06/20 08:24:55;0.00;0.00;0.62;0.00;0.00;0.62;3.20;1.83;;;24.90;32.10;;;;;;2247587;61;20364;-58
2022/06/20 08:27:43;0.00;0.00;0.62;0.00;0.00;0.62;3.50;1.97;;;24.90;32.10;;;;;;2247386;61;20472;-57
2022/06/20 08:30:37;0.00;0.00;0.62;0.00;0.00;0.62;6.90;1.57;;;24.90;32.00;;;;;;2248037;61;20407;-54
2022/06/20 08:33:28;0.00;0.00;0.62;0.00;0.00;0.62;5.97;1.93;;;24.90;32.00;;;;;;2249376;61;20367;-53
2022/06/20 08:36:19;0.00;0.00;0.62;0.00;0.00;0.62;4.17;1.43;;;25.00;31.90;;;;;;2251561;61;20459;-56
2022/06/20 08:39:12;0.00;0.00;0.62;0.00;0.00;0.62;4.20;1.80;;;25.00;31.90;;;;;;2251072;61;20415;-53
2022/06/20 08:42:54;0.00;0.00;0.62;0.00;0.00;0.62;5.63;2.07;;;25.00;31.70;;;;;;2251013;61;20394;-55
2022/06/20 08:45:52;0.00;0.00;0.62;0.00;0.00;0.62;5.20;1.90;;;25.00;31.70;;;;;;2269259;61;20435;-52
2022/06/20 08:49:13;0.00;0.00;0.62;0.00;0.00;0.62;4.40;2.17;;;25.10;31.60;;;;;;2250227;61;20363;-57
2022/06/20 08:53:01;0.00;0.00;0.62;0.00;0.00;0.62;4.10;1.47;;;25.10;31.50;;;;;;2251568;61;20422;-54
2022/06/20 08:56:15;0.00;0.00;0.62;0.00;0.00;0.62;4.93;1.90;;;25.10;31.40;;;;;;2250845;61;20422;-51
2022/06/20 08:59:17;0.00;0.00;0.62;0.00;0.00;0.62;2.97;1.50;;;25.10;31.30;;;;;;2251923;61;20506;-54
2022/06/20 09:02:14;0.00;0.00;0.62;0.00;0.00;0.62;2.80;1.40;;;25.10;31.30;;;;;;2251546;61;21105;-54
2022/06/20 09:05:29;0.00;0.00;0.62;0.00;0.00;0.62;4.87;1.90;;;25.10;31.30;;;;;;2251305;61;20830;-56
2022/06/20 09:08:40;0.00;0.00;0.62;0.00;0.00;0.62;3.23;1.33;;;25.20;31.30;;;;;;2251606;61;20398;-53
2022/06/20 09:11:50;0.00;0.00;0.62;0.00;0.00;0.62;3.50;2.30;;;25.20;31.30;;;;;;2251473;61;20892;-51
2022/06/20 09:15:03;0.00;0.00;0.62;0.00;0.00;0.62;4.40;2.07;;;25.20;31.00;;;;;;2251608;61;20366;-58
2022/06/20 09:18:01;0.00;0.00;0.62;0.00;0.00;0.62;3.83;1.63;;;25.20;30.70;;;;;;2251734;61;20442;-53
2022/06/20 09:20:57;0.00;0.00;0.62;0.00;0.00;0.62;4.10;1.70;;;25.20;30.50;;;;;;2249686;61;20939;-53
2022/06/20 09:24:02;0.00;0.00;0.62;0.00;0.00;0.62;4.43;1.90;;;25.20;30.40;;;;;;2251011;61;20434;-51
2022/06/20 09:26:58;0.00;0.00;0.62;0.00;0.00;0.62;8.17;2.27;;;25.20;30.10;;;;;;2251425;61;20434;-55
2022/06/20 09:30:08;0.00;0.00;0.62;0.00;0.00;0.62;3.30;1.67;;;25.10;30.10;;;;;;2251879;61;20379;-52
2022/06/20 09:33:32;0.00;0.00;0.62;0.00;0.00;0.62;2.47;1.60;;;25.10;30.10;;;;;;2251555;61;20417;-55
2022/06/20 09:36:47;0.00;0.00;0.62;0.00;0.00;0.62;4.80;1.73;;;25.10;30.10;;;;;;2286196;61;20390;-52
2022/06/20 09:39:49;0.00;0.00;0.62;0.00;0.00;0.62;3.20;1.33;;;25.10;30.20;;;;;;2251019;61;20395;-52
2022/06/20 09:42:42;0.00;0.00;0.62;0.00;0.00;0.62;3.43;1.40;;;25.10;30.20;;;;;;2251512;61;20529;-55
2022/06/20 09:45:38;0.00;0.00;0.62;0.00;0.00;0.62;3.87;1.53;;;25.10;30.20;;;;;;2250691;61;20386;-54
2022/06/20 09:48:38;0.00;0.00;0.62;0.00;0.00;0.62;2.83;1.20;;;25.20;30.30;;;;;;2251289;61;20418;-52
2022/06/20 09:51:32;0.00;0.00;0.62;0.00;0.00;0.62;3.90;1.20;;;25.20;30.40;;;;;;2334557;53;21003;-56
2022/06/20 09:54:25;0.00;0.00;0.62;0.00;0.00;0.62;3.17;1.27;;;25.20;30.40;;;;;;2252592;61;20494;-51
2022/06/20 09:57:23;0.00;0.00;0.62;0.00;0.00;0.62;3.70;1.70;;;25.20;30.50;;;;;;2250919;61;20386;-56
2022/06/20 10:00:16;0.00;0.00;0.62;0.00;0.00;0.62;3.50;1.80;;;25.30;30.30;;;;;;2251562;61;20482;-60
2022/06/20 10:03:13;0.00;0.00;0.62;0.00;0.00;0.62;5.10;1.87;;;25.30;30.20;;;;;;2251209;61;20414;-59
2022/06/20 10:06:06;0.00;0.00;0.62;0.00;0.00;0.62;4.10;1.83;;;25.30;30.20;;;;;;2251315;61;20383;-56
2022/06/20 10:09:04;0.00;0.00;0.62;0.00;0.00;0.62;2.20;1.50;;;25.30;30.20;;;;;;2250911;61;20386;-59
2022/06/20 10:11:59;0.00;0.00;0.62;0.00;0.00;0.62;5.33;1.67;;;25.30;30.20;;;;;;2251745;61;20701;-51
2022/06/20 10:14:56;0.00;0.00;0.62;0.00;0.00;0.62;4.30;1.67;;;25.30;30.20;;;;;;2251837;61;20362;-50
2022/06/20 10:17:52;0.00;0.00;0.62;0.00;0.00;0.62;3.23;1.90;;;25.30;30.20;;;;;;2250646;61;20387;-59
2022/06/20 10:20:48;0.00;0.00;0.62;0.00;0.00;0.62;3.70;1.50;;;25.30;30.20;;;;;;2250101;61;20363;-59
2022/06/20 10:23:54;0.00;0.00;0.62;0.00;0.00;0.62;4.53;1.90;;;25.20;30.20;;;;;;2248609;61;20407;-52
2022/06/20 10:27:16;0.00;0.00;0.62;0.00;0.00;0.62;3.07;1.70;;;25.20;30.20;;;;;;2249926;61;20397;-50
2022/06/20 10:30:09;0.00;0.00;0.62;0.00;0.00;0.62;4.77;1.40;;;25.30;30.10;;;;;;2248557;61;21336;-50
2022/06/20 10:33:02;0.00;0.00;0.62;0.00;0.00;0.62;2.60;1.60;;;25.20;30.00;;;;;;2250798;61;20362;-59
2022/06/20 10:35:56;0.00;0.00;0.62;0.00;0.00;0.62;2.20;1.40;;;25.30;30.00;;;;;;2250293;61;20395;-57
2022/06/20 10:38:49;0.00;0.00;0.62;0.00;0.00;0.62;4.70;1.60;;;25.30;29.90;;;;;;2251321;61;20366;-57
2022/06/20 10:41:45;0.00;0.00;0.62;0.00;0.00;0.62;2.83;1.73;;;25.30;29.70;;;;;;2249924;61;20367;-57
2022/06/20 10:44:45;0.00;0.00;0.62;0.00;0.00;0.62;2.40;1.60;;;25.40;29.70;;;;;;2250912;61;20394;-58
2022/06/20 10:47:41;0.00;0.00;0.62;0.00;0.00;0.62;2.53;1.40;;;25.40;29.40;;;;;;2251565;61;20453;-59
2022/06/20 10:50:36;0.00;0.00;0.62;0.00;0.00;0.62;2.63;1.93;;;25.40;29.30;;;;;;2251018;61;20407;-52
2022/06/20 10:53:31;0.00;0.00;0.62;0.00;0.00;0.62;1.80;1.40;;;25.40;29.10;;;;;;2251028;61;20367;-53
2022/06/20 10:56:24;0.00;0.00;0.62;0.00;0.00;0.62;4.23;1.70;;;25.40;28.90;;;;;;2251400;61;20417;-56
2022/06/20 10:59:25;0.00;0.00;0.62;0.00;0.00;0.62;5.40;1.90;;;25.40;28.90;;;;;;2251694;61;20450;-56
2022/06/20 11:02:37;0.00;0.00;0.62;0.00;0.00;0.62;2.40;1.30;;;25.50;28.90;;;;;;2251591;61;20382;-56
2022/06/20 11:05:31;0.00;0.00;0.62;0.00;0.00;0.62;2.93;1.83;;;25.50;29.40;;;;;;2251644;61;20391;-58
2022/06/20 11:08:32;0.00;0.00;0.62;0.00;0.00;0.62;2.83;1.67;;;25.50;28.90;;;;;;2250807;61;20434;-59
2022/06/20 11:11:32;0.00;0.00;0.62;0.00;0.00;0.62;2.97;1.30;;;25.50;28.70;;;;;;2247792;61;20481;-58
2022/06/20 11:14:27;0.00;0.00;0.62;0.00;0.00;0.62;2.60;1.50;;;25.50;28.50;;;;;;2246710;61;20343;-55
2022/06/20 11:17:33;0.00;0.00;0.62;0.00;0.00;0.62;3.13;1.20;;;25.50;28.40;;;;;;2251582;61;20962;-57
2022/06/20 11:20:24;0.00;0.00;0.62;0.00;0.00;0.62;4.60;1.50;;;25.50;28.20;;;;;;2247496;61;21078;-52
2022/06/20 11:23:17;0.00;0.00;0.62;0.00;0.00;0.62;2.43;1.80;;;25.60;28.00;;;;;;2250631;61;20362;-56
2022/06/20 11:26:18;0.00;0.00;0.62;0.00;0.00;0.62;2.30;1.40;;;25.60;27.90;;;;;;2251353;61;20406;-58
2022/06/20 11:29:22;0.00;0.00;0.62;0.00;0.00;0.62;2.40;1.63;;;25.60;27.90;;;;;;2250091;61;20367;-57
2022/06/20 11:32:17;0.00;0.00;0.62;0.00;0.00;0.62;1.83;1.60;;;25.60;27.90;;;;;;2250175;61;20429;-58
2022/06/20 11:35:35;0.00;0.00;0.62;0.00;0.00;0.62;2.60;1.70;;;25.70;27.80;;;;;;2244899;61;21209;-61